Time;durP1;ratioP1;P1;durP2;ratioP2;P2;SDS_P1;SDS_P2;PMS_P1;PMS_P2;Temp;Humidity;BMP_temperature;BMP_pressure;BME280_temperature;BME280_humidity;BME280_pressure;Samples;Min_cycle;Max_cycle;Signal;HPM_P1;HPM_P2
2024/01/30 00:00:50;;;;;;;9.37;5.90;;;;;;;1.62;100.00;102333.84;5044437;28;20041;-70
2024/01/30 00:03:15;;;;;;;15.37;5.60;;;;;;;1.40;100.00;102307.66;5045389;28;20097;-70
2024/01/30 00:05:41;;;;;;;14.50;6.93;;;;;;;1.52;100.00;102317.66;5036595;28;20037;-70
2024/01/30 00:08:06;;;;;;;15.37;6.27;;;;;;;1.32;100.00;102283.53;5041305;28;20102;-70
2024/01/30 00:10:32;;;;;;;20.13;6.43;;;;;;;1.41;100.00;102306.75;5034743;28;20525;-68
2024/01/30 00:12:57;;;;;;;18.33;6.37;;;;;;;1.50;100.00;102323.91;5042451;28;20087;-70
2024/01/30 00:15:23;;;;;;;20.80;8.50;;;;;;;1.47;100.00;102327.50;5048779;28;20049;-67
2024/01/30 00:17:48;;;;;;;19.73;6.03;;;;;;;1.43;100.00;102336.41;5047643;28;20519;-69
2024/01/30 00:20:14;;;;;;;12.97;7.83;;;;;;;1.25;100.00;102297.84;5032563;28;20476;-71
2024/01/30 00:22:40;;;;;;;15.77;6.03;;;;;;;1.24;100.00;102290.88;5030558;28;20069;-69
2024/01/30 00:25:05;;;;;;;11.07;6.13;;;;;;;1.38;100.00;102314.75;5044951;28;20033;-68
2024/01/30 00:27:31;;;;;;;15.60;6.23;;;;;;;1.47;100.00;102332.75;5033293;28;20516;-71
2024/01/30 00:29:56;;;;;;;11.93;5.63;;;;;;;1.48;100.00;102331.84;5030859;28;21013;-69
2024/01/30 00:32:23;;;;;;;12.03;7.07;;;;;;;1.45;100.00;102334.59;5032284;28;20401;-69
2024/01/30 00:34:48;;;;;;;12.03;6.10;;;;;;;1.51;100.00;102352.72;5030794;28;20040;-70
2024/01/30 00:37:14;;;;;;;20.80;6.30;;;;;;;1.48;100.00;102347.59;5030471;28;20276;-71
2024/01/30 00:39:39;;;;;;;19.03;7.50;;;;;;;1.33;100.00;102335.09;5034422;28;20033;-72
2024/01/30 00:42:05;;;;;;;15.90;6.20;;;;;;;1.47;100.00;102363.41;5036951;28;20040;-70
2024/01/30 00:44:30;;;;;;;16.30;6.70;;;;;;;0.63;100.00;102233.13;5036923;28;20114;-72
2024/01/30 00:46:56;;;;;;;13.13;5.33;;;;;;;1.08;100.00;102295.06;5020513;28;20029;-71
2024/01/30 00:49:21;;;;;;;10.07;5.50;;;;;;;0.90;100.00;102273.09;5037866;28;20409;-70
2024/01/30 00:51:47;;;;;;;14.63;5.97;;;;;;;1.39;100.00;102360.25;5037712;28;20038;-69
2024/01/30 00:54:12;;;;;;;14.77;6.33;;;;;;;1.28;100.00;102350.19;5037922;28;20045;-72
2024/01/30 00:56:37;;;;;;;13.20;6.20;;;;;;;1.22;100.00;102338.19;5036807;28;20049;-70
2024/01/30 00:59:03;;;;;;;15.63;6.20;;;;;;;1.42;100.00;102363.59;5036444;28;20558;-70
2024/01/30 01:01:28;;;;;;;9.63;5.53;;;;;;;1.40;100.00;102352.28;5038378;28;20039;-68
2024/01/30 01:03:54;;;;;;;18.53;6.47;;;;;;;1.48;100.00;102371.22;5038271;28;20099;-69
2024/01/30 01:06:19;;;;;;;13.93;5.93;;;;;;;1.23;100.00;102323.28;5037724;28;20037;-70
2024/01/30 01:08:45;;;;;;;16.27;7.07;;;;;;;1.33;100.00;102350.84;5037945;28;20048;-70
2024/01/30 01:11:10;;;;;;;15.33;6.27;;;;;;;1.46;100.00;102366.97;5037234;28;20132;-69
2024/01/30 01:13:39;;;;;;;15.47;6.37;;;;;;;1.33;100.00;102355.25;5039345;28;20068;-73
2024/01/30 01:16:06;;;;;;;18.10;6.47;;;;;;;1.31;100.00;102371.06;5039651;28;20038;-71
2024/01/30 01:18:33;;;;;;;15.37;6.80;;;;;;;1.39;100.00;102384.72;5005496;28;20863;-69
2024/01/30 01:21:02;;;;;;;14.03;7.10;;;;;;;1.28;100.00;102365.09;5037792;28;20322;-68
2024/01/30 01:23:27;;;;;;;;;;;;;;;1.46;100.00;102388.81;5039252;28;20779;-70
2024/01/30 01:25:53;;;;;;;13.83;5.80;;;;;;;1.43;100.00;102394.16;5037256;28;19924;-70
2024/01/30 01:28:18;;;;;;;13.87;6.27;;;;;;;1.38;100.00;102400.53;5037996;28;20033;-68
2024/01/30 01:30:46;;;;;;;14.23;6.07;;;;;;;1.26;100.00;102380.91;5037666;28;20049;-68
2024/01/30 01:33:14;;;;;;;15.47;6.23;;;;;;;1.36;100.00;102391.88;5037479;28;20636;-68
2024/01/30 01:35:40;;;;;;;16.70;6.87;;;;;;;1.31;100.00;102397.31;5038783;28;20111;-69
2024/01/30 01:38:05;;;;;;;16.07;6.10;;;;;;;1.26;100.00;102383.53;5037575;28;20273;-67
2024/01/30 01:40:31;;;;;;;16.57;7.93;;;;;;;1.29;100.00;102386.03;5037925;28;20635;-70
2024/01/30 01:42:56;;;;;;;15.30;6.17;;;;;;;1.28;100.00;102405.31;5037858;28;20044;-68
2024/01/30 01:45:22;;;;;;;19.77;5.87;;;;;;;1.38;100.00;102411.03;5036096;28;20136;-67
2024/01/30 01:47:51;;;;;;;11.57;5.87;;;;;;;1.40;100.00;102410.06;5037060;28;20399;-69
2024/01/30 01:50:18;;;;;;;12.30;6.50;;;;;;;1.39;100.00;102424.09;5043419;28;20063;-67
2024/01/30 01:52:45;;;;;;;18.47;6.77;;;;;;;1.38;100.00;102437.28;5038789;28;20260;-68
2024/01/30 01:55:12;;;;;;;15.27;7.37;;;;;;;1.32;100.00;102432.28;5042044;28;20292;-68
2024/01/30 01:57:38;;;;;;;12.63;6.70;;;;;;;0.93;100.00;102363.00;5040355;28;20277;-67
2024/01/30 02:00:04;;;;;;;17.13;6.37;;;;;;;1.30;100.00;102418.38;5036021;28;20826;-67
2024/01/30 02:02:36;;;;;;;14.40;6.63;;;;;;;1.02;100.00;102377.50;5034196;28;20045;-69
2024/01/30 02:05:01;;;;;;;13.73;6.63;;;;;;;1.15;100.00;102420.69;5034971;28;20287;-67
2024/01/30 02:07:28;;;;;;;18.50;6.40;;;;;;;1.37;100.00;102457.44;5034753;28;20272;-70
2024/01/30 02:09:54;;;;;;;14.13;6.57;;;;;;;1.29;100.00;102438.53;5033018;28;20030;-68
2024/01/30 02:12:19;;;;;;;13.43;6.60;;;;;;;1.36;100.00;102460.97;5032960;28;20359;-68
2024/01/30 02:14:46;;;;;;;20.00;7.20;;;;;;;1.28;100.00;102454.34;5033991;28;20357;-70
2024/01/30 02:17:12;;;;;;;13.70;6.80;;;;;;;1.39;100.00;102462.63;5033750;28;20034;-69
2024/01/30 02:19:40;;;;;;;20.00;7.43;;;;;;;1.32;100.00;102459.38;5032731;28;20354;-68
2024/01/30 02:22:08;;;;;;;14.02;6.00;;;;;;;1.42;100.00;102470.38;5034375;28;20291;-70
2024/01/30 02:24:34;;;;;;;16.53;6.80;;;;;;;1.41;100.00;102472.13;5033953;28;20033;-67
2024/01/30 02:26:59;;;;;;;11.27;5.87;;;;;;;1.34;100.00;102452.31;5032279;28;20864;-68
2024/01/30 02:29:25;;;;;;;16.47;7.27;;;;;;;1.38;100.00;102463.53;5033667;28;20048;-68
2024/01/30 02:31:50;;;;;;;15.27;5.97;;;;;;;1.32;100.00;102469.91;5033561;28;20132;-71
2024/01/30 02:34:16;;;;;;;19.53;6.80;;;;;;;1.12;100.00;102435.72;5033715;28;20041;-68
2024/01/30 02:36:45;;;;;;;20.33;6.83;;;;;;;1.21;100.00;102466.84;5032630;28;20127;-68
2024/01/30 02:39:11;;;;;;;13.10;6.10;;;;;;;1.16;100.00;102467.03;5033464;28;20033;-66
2024/01/30 02:41:36;;;;;;;18.40;6.73;;;;;;;1.04;100.00;102453.53;5033514;28;20264;-67
2024/01/30 02:44:03;;;;;;;17.13;7.83;;;;;;;1.09;100.00;102478.66;5033262;28;20534;-68
2024/01/30 02:46:28;;;;;;;14.03;6.27;;;;;;;1.09;100.00;102475.19;5033330;28;20037;-68
2024/01/30 02:48:54;;;;;;;13.37;6.47;;;;;;;0.94;100.00;102453.03;5033444;28;20268;-66
2024/01/30 02:51:19;;;;;;;10.60;6.03;;;;;;;0.89;100.00;102449.75;5033625;28;20041;-67
2024/01/30 02:53:45;;;;;;;15.83;6.73;;;;;;;0.92;100.00;102455.72;5033445;28;20520;-68
2024/01/30 02:56:10;;;;;;;19.53;8.90;;;;;;;0.84;100.00;102444.66;5032163;28;20044;-70
2024/01/30 02:58:36;;;;;;;11.40;7.00;;;;;;;0.83;100.00;102453.44;5033248;28;20072;-67
2024/01/30 03:01:03;;;;;;;13.87;6.10;;;;;;;0.96;100.00;102476.59;5032215;28;20029;-68
2024/01/30 03:03:28;;;;;;;14.73;6.33;;;;;;;0.88;100.00;102472.50;5032184;28;20264;-68
2024/01/30 03:05:54;;;;;;;15.30;6.50;;;;;;;0.97;100.00;102483.53;5033318;28;20279;-69
2024/01/30 03:08:19;;;;;;;15.37;6.90;;;;;;;0.92;100.00;102481.97;5032562;28;20029;-67
2024/01/30 03:10:45;;;;;;;12.93;6.20;;;;;;;0.85;100.00;102483.09;5033623;28;20475;-67
2024/01/30 03:13:10;;;;;;;18.23;6.83;;;;;;;0.82;100.00;102488.44;5033659;28;20050;-69
2024/01/30 03:15:36;;;;;;;21.27;7.00;;;;;;;0.87;100.00;102494.41;5015240;28;20041;-68
2024/01/30 03:18:03;;;;;;;17.93;7.13;;;;;;;0.87;100.00;102502.28;5032918;28;20091;-69
2024/01/30 03:20:31;;;;;;;13.63;5.87;;;;;;;0.74;100.00;102482.66;5031499;28;20057;-69
2024/01/30 03:22:57;;;;;;;16.77;6.00;;;;;;;0.69;100.00;102474.09;5032681;28;20283;-68
2024/01/30 03:25:24;;;;;;;15.27;6.23;;;;;;;0.67;100.00;102475.06;5031089;28;20273;-67
2024/01/30 03:27:49;;;;;;;14.73;6.73;;;;;;;0.66;100.00;102489.94;5030941;28;20095;-70
2024/01/30 03:30:15;;;;;;;18.43;7.00;;;;;;;-0.04;100.00;102395.53;5032257;28;20759;-69
2024/01/30 03:32:40;;;;;;;13.03;6.13;;;;;;;0.70;100.00;102527.41;5032634;28;20515;-68
2024/01/30 03:35:06;;;;;;;21.53;8.30;;;;;;;0.68;100.00;102524.84;5032728;28;20091;-71
2024/01/30 03:37:31;;;;;;;13.83;6.33;;;;;;;0.53;100.00;102501.78;5032306;28;20072;-68
2024/01/30 03:39:57;;;;;;;15.90;8.33;;;;;;;0.51;100.00;102495.75;5032276;28;20045;-67
2024/01/30 03:42:22;;;;;;;18.57;6.70;;;;;;;0.53;100.00;102513.13;5032590;28;20047;-67
2024/01/30 03:44:48;;;;;;;18.60;6.67;;;;;;;0.44;100.00;102499.50;5030895;28;20404;-68
2024/01/30 03:47:14;;;;;;;15.20;6.87;;;;;;;0.39;100.00;102496.19;5030849;28;20404;-68
2024/01/30 03:49:40;;;;;;;18.97;6.73;;;;;;;0.32;100.00;102497.34;5032320;28;20037;-68
2024/01/30 03:52:05;;;;;;;19.73;7.20;;;;;;;0.23;100.00;102496.72;5031074;28;20041;-70
2024/01/30 03:54:31;;;;;;;17.53;7.47;;;;;;;0.26;100.00;102496.63;5030863;28;20426;-67
2024/01/30 03:56:56;;;;;;;11.73;6.13;;;;;;;0.31;100.00;102514.81;5030678;28;20556;-69
2024/01/30 03:59:23;;;;;;;17.03;6.80;;;;;;;0.24;100.00;102493.19;5031623;28;20045;-68
2024/01/30 04:01:52;;;;;;;13.50;6.83;;;;;;;0.30;100.00;102505.25;5032011;28;20037;-70
2024/01/30 04:04:18;;;;;;;16.75;7.13;;;;;;;-0.51;100.00;102371.88;5014347;28;20311;-67
2024/01/30 04:06:44;;;;;;;16.87;6.73;;;;;;;0.27;100.00;102519.28;5031732;28;20116;-69
2024/01/30 04:09:09;;;;;;;13.97;7.07;;;;;;;0.08;100.00;102492.03;5031970;28;20045;-68
2024/01/30 04:11:35;;;;;;;21.47;7.93;;;;;;;0.16;100.00;102510.94;5030660;28;20325;-69
2024/01/30 04:14:01;;;;;;;15.67;6.80;;;;;;;-0.15;100.00;102460.53;5031253;28;20049;-69
2024/01/30 04:16:26;;;;;;;18.13;8.07;;;;;;;-0.03;100.00;102465.34;5031756;28;20128;-67
2024/01/30 04:18:52;;;;;;;17.23;7.77;;;;;;;0.19;100.00;102510.84;5032217;28;20072;-66
2024/01/30 04:21:18;;;;;;;15.77;7.67;;;;;;;-0.08;100.00;102475.13;5030445;28;20501;-67
2024/01/30 04:23:43;;;;;;;15.67;7.93;;;;;;;0.01;100.00;102493.16;5031988;28;20279;-73
2024/01/30 04:26:09;;;;;;;17.17;8.67;;;;;;;-0.02;100.00;102488.00;5033782;28;20076;-70
2024/01/30 04:28:55;;;;;;;13.83;7.50;;;;;;;0.11;100.00;102512.88;5034792;28;20044;-71
2024/01/30 04:31:20;;;;;;;14.60;8.10;;;;;;;-0.01;100.00;102487.09;5048565;28;20043;-68
2024/01/30 04:33:53;;;;;;;21.97;8.23;;;;;;;0.19;100.00;102518.72;5052686;28;20702;-69
2024/01/30 04:36:18;;;;;;;14.20;7.87;;;;;;;0.18;100.00;102503.91;5052601;28;20043;-67
2024/01/30 04:38:44;;;;;;;16.20;8.50;;;;;;;0.11;100.00;102494.53;5051768;28;20382;-70
2024/01/30 04:41:21;;;;;;;17.93;7.97;;;;;;;0.04;100.00;102485.19;5051533;28;20052;-71
2024/01/30 04:43:46;;;;;;;16.00;7.73;;;;;;;0.05;100.00;102476.44;5050252;28;20480;-70
2024/01/30 04:46:11;;;;;;;19.20;9.23;;;;;;;0.10;100.00;102482.34;5050239;28;20279;-70
2024/01/30 04:48:37;;;;;;;22.53;7.50;;;;;;;0.22;100.00;102505.50;5050033;28;20485;-68
2024/01/30 04:51:04;;;;;;;13.67;7.40;;;;;;;0.28;100.00;102515.75;5050132;28;20029;-68
2024/01/30 04:53:32;;;;;;;17.13;9.00;;;;;;;0.11;100.00;102481.44;5051939;28;20125;-71
2024/01/30 04:55:57;;;;;;;18.65;10.32;;;;;;;0.19;100.00;102495.13;5053910;28;20272;-66
2024/01/30 04:58:23;;;;;;;15.53;7.70;;;;;;;0.07;100.00;102485.09;5054126;28;20190;-70
2024/01/30 05:00:51;;;;;;;18.37;8.17;;;;;;;0.10;100.00;102505.94;5052398;28;20101;-71
2024/01/30 05:03:17;;;;;;;29.50;10.45;;;;;;;0.09;100.00;102498.97;5051417;28;20045;-70
2024/01/30 05:05:49;;;;;;;16.63;7.90;;;;;;;0.21;100.00;102511.66;5050345;28;20067;-67
2024/01/30 05:08:14;;;;;;;16.63;8.73;;;;;;;0.29;100.00;102527.13;5050706;28;20275;-71
2024/01/30 05:10:40;;;;;;;18.80;8.73;;;;;;;0.25;100.00;102530.72;5033029;28;20274;-69
2024/01/30 05:13:06;;;;;;;12.30;7.97;;;;;;;0.16;100.00;102531.06;5049518;28;20451;-68
2024/01/30 05:15:31;;;;;;;17.63;9.30;;;;;;;0.14;100.00;102541.59;5051255;28;20507;-68
2024/01/30 05:17:57;;;;;;;15.47;8.70;;;;;;;-0.01;100.00;102514.13;5049738;28;20083;-68
2024/01/30 05:20:24;;;;;;;20.47;10.23;;;;;;;0.21;100.00;102550.94;5050360;28;20061;-69
2024/01/30 05:22:49;;;;;;;13.90;8.13;;;;;;;0.24;100.00;102550.84;5045355;28;20183;-69
2024/01/30 05:25:15;;;;;;;17.30;9.10;;;;;;;0.17;100.00;102533.63;5051359;28;20763;-71
2024/01/30 05:27:40;;;;;;;14.27;7.33;;;;;;;0.18;100.00;102529.25;5054304;28;20063;-72
2024/01/30 05:30:06;;;;;;;19.17;8.37;;;;;;;0.23;100.00;102543.88;5054034;28;20029;-68
2024/01/30 05:32:32;;;;;;;23.43;8.80;;;;;;;0.33;100.00;102561.94;5054557;28;20041;-67
2024/01/30 05:34:57;;;;;;;15.53;9.30;;;;;;;0.21;100.00;102543.09;5054516;28;20437;-68
2024/01/30 05:37:23;;;;;;;19.00;7.83;;;;;;;0.39;100.00;102562.56;5054400;28;20044;-67
2024/01/30 05:39:48;;;;;;;16.47;8.67;;;;;;;0.28;100.00;102541.97;5054735;28;20059;-68
2024/01/30 05:42:16;;;;;;;15.00;8.93;;;;;;;0.34;100.00;102559.25;5054708;28;20044;-67
2024/01/30 05:44:42;;;;;;;14.90;7.87;;;;;;;0.42;100.00;102566.84;5054532;28;20766;-67
2024/01/30 05:47:08;;;;;;;24.13;8.97;;;;;;;0.41;100.00;102565.13;5054193;28;20270;-69
2024/01/30 05:49:33;;;;;;;19.23;8.23;;;;;;;0.49;100.00;102581.44;5054196;28;20028;-71
2024/01/30 05:51:58;;;;;;;18.47;8.33;;;;;;;0.49;100.00;102584.94;5055119;28;20028;-70
2024/01/30 05:54:24;;;;;;;18.03;9.13;;;;;;;0.52;100.00;102586.59;5052853;28;20507;-69
2024/01/30 05:56:49;;;;;;;13.00;7.90;;;;;;;0.49;100.00;102576.22;5056408;28;20045;-68
2024/01/30 05:59:15;;;;;;;16.37;8.13;;;;;;;0.38;100.00;102549.53;5061413;28;20037;-64
2024/01/30 06:01:47;;;;;;;16.10;8.97;;;;;;;0.37;100.00;102563.53;5055467;28;20025;-70
2024/01/30 06:04:13;;;;;;;16.97;8.87;;;;;;;0.46;100.00;102576.31;5053993;28;20033;-70
2024/01/30 06:06:38;;;;;;;17.53;8.67;;;;;;;0.44;100.00;102583.38;5039548;28;20291;-68
2024/01/30 06:09:04;;;;;;;21.00;9.97;;;;;;;0.41;100.00;102583.50;5046197;28;20526;-68
2024/01/30 06:11:29;;;;;;;15.00;8.17;;;;;;;0.46;100.00;102592.91;5047332;28;20473;-70
2024/01/30 06:13:55;;;;;;;15.33;10.50;;;;;;;0.40;100.00;102571.28;5043720;28;20132;-66
2024/01/30 06:16:21;;;;;;;19.67;9.63;;;;;;;0.11;100.00;102512.03;5046034;28;20041;-68
2024/01/30 06:18:49;;;;;;;21.77;8.90;;;;;;;0.39;100.00;102553.84;5042096;28;20092;-68
2024/01/30 06:21:14;;;;;;;20.50;8.63;;;;;;;0.39;100.00;102564.34;5043582;28;20299;-71
2024/01/30 06:23:40;;;;;;;16.67;8.07;;;;;;;-0.50;100.00;102425.94;5040769;28;20801;-68
2024/01/30 06:26:07;;;;;;;23.17;8.93;;;;;;;0.38;100.00;102557.38;5050478;28;20044;-71
2024/01/30 06:28:32;;;;;;;14.53;8.77;;;;;;;0.52;100.00;102578.72;5047047;28;20064;-67
2024/01/30 06:30:58;;;;;;;16.20;8.03;;;;;;;0.23;100.00;102530.78;5049734;28;20299;-67
2024/01/30 06:33:23;;;;;;;14.90;8.23;;;;;;;0.48;100.00;102579.75;5039119;28;20064;-70
2024/01/30 06:35:49;;;;;;;20.00;9.00;;;;;;;0.27;100.00;102561.22;5040806;28;20092;-69
2024/01/30 06:38:15;;;;;;;17.73;9.07;;;;;;;0.30;100.00;102563.75;5044884;28;20492;-68
2024/01/30 06:40:41;;;;;;;17.53;9.60;;;;;;;0.31;100.00;102546.28;5043717;28;20073;-68
2024/01/30 06:43:07;;;;;;;18.97;8.53;;;;;;;0.63;100.00;102592.31;5044044;28;20357;-68
2024/01/30 06:45:34;;;;;;;14.93;9.00;;;;;;;0.78;100.00;102599.63;5053518;28;20763;-70
2024/01/30 06:48:00;;;;;;;17.80;9.13;;;;;;;0.77;100.00;102586.56;5045211;28;20280;-71
2024/01/30 06:50:26;;;;;;;24.03;9.47;;;;;;;0.75;100.00;102586.63;5048233;28;20286;-69
2024/01/30 06:52:51;;;;;;;27.87;11.17;;;;;;;0.77;100.00;102576.94;5046440;28;20025;-69
2024/01/30 06:55:18;;;;;;;20.30;9.23;;;;;;;0.96;100.00;102613.00;5052879;28;20094;-70
2024/01/30 06:57:43;;;;;;;19.57;9.20;;;;;;;0.92;100.00;102589.50;5048807;28;20131;-70
2024/01/30 07:00:09;;;;;;;20.53;8.63;;;;;;;1.00;100.00;102609.34;5050887;28;20389;-67
2024/01/30 07:02:35;;;;;;;14.70;8.97;;;;;;;1.11;100.00;102615.91;5047264;28;20045;-69
2024/01/30 07:05:00;;;;;;;17.90;9.27;;;;;;;1.09;100.00;102601.13;5053481;28;20367;-70
2024/01/30 07:07:26;;;;;;;21.43;9.53;;;;;;;1.20;100.00;102607.72;5052602;28;20045;-69
2024/01/30 07:09:56;;;;;;;15.23;10.30;;;;;;;1.18;100.00;102611.31;5052667;28;20481;-71
2024/01/30 07:12:24;;;;;;;25.00;9.97;;;;;;;1.11;100.00;102602.78;5052316;28;20075;-69
2024/01/30 07:14:50;;;;;;;18.92;9.77;;;;;;;1.10;100.00;102605.47;5050961;28;20295;-70
2024/01/30 07:17:16;;;;;;;19.17;11.10;;;;;;;1.09;100.00;102601.13;5052251;28;20045;-68
2024/01/30 07:19:42;;;;;;;21.83;10.30;;;;;;;1.04;100.00;102589.97;5053481;28;20941;-70
2024/01/30 07:22:08;;;;;;;17.90;9.03;;;;;;;1.01;100.00;102575.19;5053591;28;20048;-68
2024/01/30 07:24:34;;;;;;;18.93;9.67;;;;;;;0.96;100.00;102560.53;5053028;28;20314;-69
2024/01/30 07:26:59;;;;;;;21.20;8.47;;;;;;;1.20;100.00;102607.72;5048462;28;20318;-71
2024/01/30 07:29:25;;;;;;;24.63;8.40;;;;;;;1.01;100.00;102590.09;5047908;28;20041;-68
2024/01/30 07:31:50;;;;;;;15.53;8.43;;;;;;;1.07;100.00;102600.34;5047053;28;20044;-69
2024/01/30 07:34:16;;;;;;;17.67;8.47;;;;;;;0.95;100.00;102590.31;5048033;28;20041;-67
2024/01/30 07:36:41;;;;;;;18.33;8.83;;;;;;;0.97;100.00;102605.09;5051184;28;20029;-67
2024/01/30 07:39:07;;;;;;;18.03;10.97;;;;;;;0.88;100.00;102600.19;5047158;28;20535;-70
2024/01/30 07:41:32;;;;;;;19.07;11.37;;;;;;;0.90;100.00;102603.59;5050120;28;20179;-70
2024/01/30 07:43:58;;;;;;;23.20;9.30;;;;;;;0.83;100.00;102605.56;5050127;28;20158;-69
2024/01/30 07:46:23;;;;;;;12.70;8.43;;;;;;;0.95;100.00;102620.03;5051588;28;20167;-68
2024/01/30 07:48:49;;;;;;;17.83;9.10;;;;;;;0.92;100.00;102607.03;5051129;28;20036;-69
2024/01/30 07:51:14;;;;;;;18.30;7.83;;;;;;;0.82;100.00;102588.13;5055733;28;20029;-69
2024/01/30 07:53:40;;;;;;;18.87;8.80;;;;;;;0.91;100.00;102597.44;5052910;28;20051;-68
2024/01/30 07:56:05;;;;;;;24.83;9.77;;;;;;;1.09;100.00;102611.63;5054756;28;20026;-73
2024/01/30 07:58:31;;;;;;;21.47;9.77;;;;;;;1.09;100.00;102601.13;5055461;28;20500;-68
2024/01/30 08:00:58;;;;;;;23.40;8.77;;;;;;;1.02;100.00;102586.53;5049553;28;20065;-71
2024/01/30 08:03:24;;;;;;;17.67;9.07;;;;;;;1.24;100.00;102630.31;5048743;28;20037;-70
2024/01/30 08:05:49;;;;;;;20.50;9.50;;;;;;;1.20;100.00;102617.38;5048347;28;20793;-71
2024/01/30 08:08:15;;;;;;;16.00;8.10;;;;;;;1.11;100.00;102599.31;5048057;28;20290;-67
2024/01/30 08:10:40;;;;;;;21.27;9.00;;;;;;;1.28;100.00;102619.69;5047758;28;20036;-69
2024/01/30 08:13:06;;;;;;;14.83;8.40;;;;;;;1.27;100.00;102608.34;5049061;28;20061;-71
2024/01/30 08:15:31;;;;;;;18.37;8.80;;;;;;;1.48;100.00;102628.53;5048311;28;20492;-70
2024/01/30 08:17:58;;;;;;;16.50;9.13;;;;;;;1.48;100.00;102628.53;5050281;28;20048;-69
2024/01/30 08:20:28;;;;;;;15.57;8.10;;;;;;;1.43;100.00;102633.09;5051667;28;20060;-70
2024/01/30 08:22:53;;;;;;;14.73;8.07;;;;;;;1.35;100.00;102618.53;5051900;28;20291;-68
2024/01/30 08:25:18;;;;;;;17.13;9.47;;;;;;;1.39;100.00;102623.63;5049862;28;20747;-72
2024/01/30 08:27:44;;;;;;;15.97;8.10;;;;;;;1.39;100.00;102623.63;5046189;28;20417;-71
2024/01/30 08:30:10;;;;;;;16.53;8.40;;;;;;;1.24;100.00;102596.19;5048929;28;20029;-72
2024/01/30 08:32:36;;;;;;;20.70;10.20;;;;;;;1.34;100.00;102611.59;5048340;28;20473;-71
2024/01/30 08:35:03;;;;;;;17.97;8.57;;;;;;;1.22;100.00;102584.03;5049690;28;20064;-74
2024/01/30 08:37:29;;;;;;;24.50;9.07;;;;;;;1.29;100.00;102590.75;5052176;28;20042;-72
2024/01/30 08:39:55;;;;;;;21.10;9.10;;;;;;;1.33;100.00;102597.59;5066397;28;20279;-72
2024/01/30 08:42:22;;;;;;;24.67;10.60;;;;;;;1.49;100.00;102618.88;5063138;28;20284;-75
2024/01/30 08:44:49;;;;;;;17.77;9.93;;;;;;;1.56;100.00;102630.84;5065536;28;20034;-74
2024/01/30 08:47:16;;;;;;;15.50;8.73;;;;;;;1.60;100.00;102637.69;5068705;28;20276;-72
2024/01/30 08:49:44;;;;;;;18.30;8.80;;;;;;;1.55;100.00;102630.00;5069971;28;20298;-73
2024/01/30 08:52:12;;;;;;;20.87;9.20;;;;;;;1.38;100.00;102631.53;5067648;28;20259;-73
2024/01/30 08:54:38;;;;;;;20.83;10.27;;;;;;;1.17;100.00;102588.63;5062902;28;20291;-69
2024/01/30 08:57:04;;;;;;;22.13;9.20;;;;;;;1.45;100.00;102643.56;5054667;28;20043;-72
2024/01/30 08:59:29;;;;;;;23.33;8.67;;;;;;;1.34;100.00;102630.81;5052244;28;20026;-74
2024/01/30 09:01:57;;;;;;;18.07;9.10;;;;;;;1.40;100.00;102646.31;5070635;28;20132;-73
2024/01/30 09:04:23;;;;;;;24.20;9.10;;;;;;;1.00;100.00;102585.75;5077296;28;20029;-75
2024/01/30 09:06:49;;;;;;;23.70;11.20;;;;;;;1.20;100.00;102625.22;5075238;28;20315;-74
2024/01/30 09:09:14;;;;;;;24.13;10.57;;;;;;;1.14;100.00;102621.03;5074152;28;20064;-71
2024/01/30 09:11:40;;;;;;;21.00;10.07;;;;;;;1.14;100.00;102641.19;5078211;28;20015;-73
2024/01/30 09:14:06;;;;;;;21.37;10.63;;;;;;;0.99;100.00;102620.78;5075950;28;20013;-70
2024/01/30 09:16:31;;;;;;;22.30;10.03;;;;;;;1.00;100.00;102636.44;5073182;28;20050;-70
2024/01/30 09:18:57;;;;;;;14.40;9.00;;;;;;;0.93;100.00;102634.97;5073560;28;20028;-70
2024/01/30 09:21:23;;;;;;;25.43;9.73;;;;;;;0.90;100.00;102633.31;5071799;28;20140;-72
2024/01/30 09:23:48;;;;;;;20.77;10.13;;;;;;;0.79;100.00;102621.47;5071920;28;20275;-71
2024/01/30 09:26:14;;;;;;;18.87;10.47;;;;;;;0.83;100.00;102634.41;5071599;28;20079;-73
2024/01/30 09:28:42;;;;;;;22.63;10.27;;;;;;;0.92;100.00;102649.84;5071800;28;20037;-72
2024/01/30 09:31:12;;;;;;;22.27;10.50;;;;;;;0.87;100.00;102629.94;5067764;28;20043;-71
2024/01/30 09:33:38;;;;;;;21.57;10.23;;;;;;;1.09;100.00;102666.75;5058318;28;20294;-75
2024/01/30 09:36:05;;;;;;;16.67;9.43;;;;;;;1.09;100.00;102670.22;5049515;28;20272;-75
2024/01/30 09:38:30;;;;;;;22.07;9.97;;;;;;;0.86;100.00;102630.81;5055734;28;20275;-76
2024/01/30 09:41:03;;;;;;;14.33;9.20;;;;;;;1.02;100.00;102652.13;5050715;28;20716;-73
2024/01/30 09:43:32;;;;;;;18.67;9.60;;;;;;;1.10;100.00;102656.19;5056391;28;20041;-72
2024/01/30 09:45:59;;;;;;;18.97;9.77;;;;;;;1.12;100.00;102648.25;5044902;28;20655;-74
2024/01/30 09:48:26;;;;;;;24.47;10.20;;;;;;;1.14;100.00;102649.06;5039200;28;20334;-72
2024/01/30 09:50:53;;;;;;;20.43;10.87;;;;;;;1.21;100.00;102655.81;5045391;28;20287;-74
2024/01/30 09:53:19;;;;;;;27.77;10.13;;;;;;;1.21;100.00;102653.19;5047823;28;20417;-73
2024/01/30 09:55:45;;;;;;;17.90;10.03;;;;;;;1.06;100.00;102624.88;5044261;28;20782;-71
2024/01/30 09:58:13;;;;;;;20.70;9.80;;;;;;;1.27;100.00;102655.59;5042890;28;20126;-73
2024/01/30 10:00:39;;;;;;;19.53;12.23;;;;;;;1.32;100.00;102637.88;5044448;28;20279;-75
2024/01/30 10:03:04;;;;;;;19.87;10.47;;;;;;;1.49;100.00;102650.41;5043800;28;20667;-73
2024/01/30 10:05:33;;;;;;;15.33;9.43;;;;;;;1.61;100.00;102662.19;5035517;28;20036;-74
2024/01/30 10:07:59;;;;;;;;;;;;;;;1.70;100.00;102664.47;5032007;28;20354;-76
2024/01/30 10:10:24;;;;;;;20.07;8.60;;;;;;;1.81;100.00;102657.03;5051238;28;19924;-71
2024/01/30 10:12:50;;;;;;;20.03;9.53;;;;;;;1.73;100.00;102651.19;5048176;28;20045;-73
2024/01/30 10:15:16;;;;;;;18.13;9.43;;;;;;;1.78;100.00;102662.41;5054431;28;20093;-73
2024/01/30 10:17:42;;;;;;;18.13;9.53;;;;;;;1.73;100.00;102636.28;5034845;28;20040;-74
2024/01/30 10:20:09;;;;;;;17.33;9.40;;;;;;;2.05;100.00;102674.47;5045618;28;20299;-71
2024/01/30 10:22:35;;;;;;;18.70;10.00;;;;;;;1.98;100.00;102659.84;5045385;28;20044;-72
2024/01/30 10:25:00;;;;;;;21.53;8.50;;;;;;;1.99;100.00;102669.44;5047914;28;20279;-74
2024/01/30 10:27:27;;;;;;;22.63;8.37;;;;;;;1.94;100.00;102663.50;5044550;28;20099;-73
2024/01/30 10:29:52;;;;;;;20.23;10.63;;;;;;;2.03;100.00;102678.94;5046035;28;20068;-71
2024/01/30 10:32:19;;;;;;;17.53;8.83;;;;;;;1.69;100.00;102634.72;5038949;28;20323;-71
2024/01/30 10:34:45;;;;;;;15.37;9.10;;;;;;;1.62;100.00;102632.38;5045601;28;20064;-70
2024/01/30 10:37:14;;;;;;;17.03;9.47;;;;;;;1.64;100.00;102652.41;5042841;28;20284;-75
2024/01/30 10:39:40;;;;;;;19.63;9.83;;;;;;;1.68;100.00;102680.28;5050793;28;20074;-73
2024/01/30 10:42:10;;;;;;;17.53;9.80;;;;;;;1.52;100.00;102651.13;5045628;28;20362;-71
2024/01/30 10:45:08;;;;;;;17.97;8.13;;;;;;;1.65;100.00;102669.03;5039926;28;20279;-72
2024/01/30 10:47:36;;;;;;;19.07;9.33;;;;;;;1.48;100.00;102660.03;5035097;28;20421;-71
2024/01/30 10:50:03;;;;;;;20.42;9.25;;;;;;;1.53;100.00;102662.50;5034005;28;20299;-72
2024/01/30 10:52:29;;;;;;;13.10;7.77;;;;;;;0.88;100.00;102559.06;5038318;28;20523;-71
2024/01/30 10:54:56;;;;;;;17.30;9.97;;;;;;;1.60;100.00;102660.47;5041697;28;20300;-73
2024/01/30 10:57:25;;;;;;;24.07;8.70;;;;;;;1.50;100.00;102626.72;5042988;28;20330;-70
2024/01/30 10:59:59;;;;;;;21.57;9.00;;;;;;;1.80;100.00;102671.94;5057318;28;20284;-71
2024/01/30 11:02:25;;;;;;;16.80;9.90;;;;;;;1.71;100.00;102660.91;5047137;28;20383;-72
2024/01/30 11:04:57;;;;;;;21.60;10.20;;;;;;;1.65;100.00;102653.28;5063439;28;20314;-71
2024/01/30 11:07:27;;;;;;;15.33;8.63;;;;;;;1.58;100.00;102657.06;5054332;28;20282;-71
2024/01/30 11:10:06;;;;;;;29.73;11.20;;;;;;;1.49;100.00;102651.25;5063245;28;20279;-71
2024/01/30 11:12:33;;;;;;;13.33;9.00;;;;;;;1.54;100.00;102644.06;5067595;28;20359;-71